sensor_id;sensor_type;location;lat;lon;timestamp;temperature;humidity
34492;DHT22;20737;49.908;8.126;2022-07-23T00:01:26;21.30;99.90
34492;DHT22;20737;49.908;8.126;2022-07-23T00:03:54;21.30;99.90
34492;DHT22;20737;49.908;8.126;2022-07-23T00:06:21;21.30;99.90
34492;DHT22;20737;49.908;8.126;2022-07-23T00:08:48;21.40;99.90
34492;DHT22;20737;49.908;8.126;2022-07-23T00:11:16;21.30;99.90
34492;DHT22;20737;49.908;8.126;2022-07-23T00:13:43;21.40;99.90
34492;DHT22;20737;49.908;8.126;2022-07-23T00:16:10;21.40;99.90
34492;DHT22;20737;49.908;8.126;2022-07-23T00:18:38;21.50;99.90
34492;DHT22;20737;49.908;8.126;2022-07-23T00:21:05;21.50;99.90
34492;DHT22;20737;49.908;8.126;2022-07-23T00:23:31;21.40;99.90
34492;DHT22;20737;49.908;8.126;2022-07-23T00:25:58;21.40;99.90
34492;DHT22;20737;49.908;8.126;2022-07-23T00:28:25;21.40;99.90
34492;DHT22;20737;49.908;8.126;2022-07-23T00:30:52;21.40;99.90
34492;DHT22;20737;49.908;8.126;2022-07-23T00:33:19;21.30;99.90
34492;DHT22;20737;49.908;8.126;2022-07-23T00:35:47;21.20;99.90
34492;DHT22;20737;49.908;8.126;2022-07-23T00:38:13;21.20;99.90
34492;DHT22;20737;49.908;8.126;2022-07-23T00:40:40;21.20;99.90
34492;DHT22;20737;49.908;8.126;2022-07-23T00:43:07;21.20;99.90
34492;DHT22;20737;49.908;8.126;2022-07-23T00:45:34;21.10;99.90
34492;DHT22;20737;49.908;8.126;2022-07-23T00:48:02;21.10;99.90
34492;DHT22;20737;49.908;8.126;2022-07-23T00:50:29;21.10;99.90
34492;DHT22;20737;49.908;8.126;2022-07-23T00:52:57;21.10;99.90
34492;DHT22;20737;49.908;8.126;2022-07-23T00:55:24;21.20;99.90
34492;DHT22;20737;49.908;8.126;2022-07-23T00:57:53;21.20;99.90
34492;DHT22;20737;49.908;8.126;2022-07-23T01:00:20;21.30;99.90
34492;DHT22;20737;49.908;8.126;2022-07-23T01:02:47;21.30;99.90
34492;DHT22;20737;49.908;8.126;2022-07-23T01:05:14;21.30;99.90
34492;DHT22;20737;49.908;8.126;2022-07-23T01:07:42;21.30;99.90
34492;DHT22;20737;49.908;8.126;2022-07-23T01:10:10;21.30;99.90
34492;DHT22;20737;49.908;8.126;2022-07-23T01:12:51;21.30;99.90
34492;DHT22;20737;49.908;8.126;2022-07-23T01:15:18;21.10;99.90
34492;DHT22;20737;49.908;8.126;2022-07-23T01:17:44;20.90;99.90
34492;DHT22;20737;49.908;8.126;2022-07-23T01:20:11;20.90;99.90
34492;DHT22;20737;49.908;8.126;2022-07-23T01:22:39;20.80;99.90
34492;DHT22;20737;49.908;8.126;2022-07-23T01:25:07;20.80;99.90
34492;DHT22;20737;49.908;8.126;2022-07-23T01:27:34;20.80;99.90
34492;DHT22;20737;49.908;8.126;2022-07-23T01:30:02;20.70;99.90
34492;DHT22;20737;49.908;8.126;2022-07-23T01:32:29;20.60;99.90
34492;DHT22;20737;49.908;8.126;2022-07-23T01:34:56;20.60;99.90
34492;DHT22;20737;49.908;8.126;2022-07-23T01:37:23;20.60;99.90
34492;DHT22;20737;49.908;8.126;2022-07-23T01:39:51;20.70;99.90
34492;DHT22;20737;49.908;8.126;2022-07-23T01:42:18;20.70;99.90
34492;DHT22;20737;49.908;8.126;2022-07-23T01:44:45;20.70;99.90
34492;DHT22;20737;49.908;8.126;2022-07-23T01:47:11;20.70;99.90
34492;DHT22;20737;49.908;8.126;2022-07-23T01:49:38;20.60;99.90
34492;DHT22;20737;49.908;8.126;2022-07-23T01:52:05;20.70;99.90
34492;DHT22;20737;49.908;8.126;2022-07-23T01:54:37;20.60;99.90
34492;DHT22;20737;49.908;8.126;2022-07-23T01:57:06;20.60;99.90
34492;DHT22;20737;49.908;8.126;2022-07-23T01:59:33;20.70;99.90
34492;DHT22;20737;49.908;8.126;2022-07-23T02:02:00;20.60;99.90
34492;DHT22;20737;49.908;8.126;2022-07-23T02:04:29;20.60;99.90
34492;DHT22;20737;49.908;8.126;2022-07-23T02:06:56;20.60;99.90
34492;DHT22;20737;49.908;8.126;2022-07-23T02:09:22;20.60;99.90
34492;DHT22;20737;49.908;8.126;2022-07-23T02:11:49;20.60;99.90
34492;DHT22;20737;49.908;8.126;2022-07-23T02:14:17;20.60;99.90
34492;DHT22;20737;49.908;8.126;2022-07-23T02:16:44;20.60;99.90
34492;DHT22;20737;49.908;8.126;2022-07-23T02:19:11;20.50;99.90
34492;DHT22;20737;49.908;8.126;2022-07-23T02:21:38;20.50;99.90
34492;DHT22;20737;49.908;8.126;2022-07-23T02:24:05;20.40;99.90
34492;DHT22;20737;49.908;8.126;2022-07-23T02:26:32;20.40;99.90
34492;DHT22;20737;49.908;8.126;2022-07-23T02:29:00;20.40;99.90
34492;DHT22;20737;49.908;8.126;2022-07-23T02:31:28;20.40;99.90
34492;DHT22;20737;49.908;8.126;2022-07-23T02:33:55;20.50;99.90
34492;DHT22;20737;49.908;8.126;2022-07-23T02:36:22;20.50;99.90
34492;DHT22;20737;49.908;8.126;2022-07-23T02:38:49;20.50;99.90
34492;DHT22;20737;49.908;8.126;2022-07-23T02:41:16;20.50;99.90
34492;DHT22;20737;49.908;8.126;2022-07-23T02:43:43;20.40;99.90
34492;DHT22;20737;49.908;8.126;2022-07-23T02:46:10;20.40;99.90
34492;DHT22;20737;49.908;8.126;2022-07-23T02:48:38;20.40;99.90
34492;DHT22;20737;49.908;8.126;2022-07-23T02:51:05;20.40;99.90
34492;DHT22;20737;49.908;8.126;2022-07-23T02:53:32;20.30;99.90
34492;DHT22;20737;49.908;8.126;2022-07-23T02:55:58;20.30;99.90
34492;DHT22;20737;49.908;8.126;2022-07-23T02:58:25;20.20;99.90
34492;DHT22;20737;49.908;8.126;2022-07-23T03:00:52;20.30;99.90
34492;DHT22;20737;49.908;8.126;2022-07-23T03:03:19;20.30;99.90
34492;DHT22;20737;49.908;8.126;2022-07-23T03:05:47;20.30;99.90
34492;DHT22;20737;49.908;8.126;2022-07-23T03:08:14;20.30;99.90
34492;DHT22;20737;49.908;8.126;2022-07-23T03:10:41;20.20;99.90
34492;DHT22;20737;49.908;8.126;2022-07-23T03:13:08;20.30;99.90
34492;DHT22;20737;49.908;8.126;2022-07-23T03:15:35;20.30;99.90
34492;DHT22;20737;49.908;8.126;2022-07-23T03:18:01;20.30;99.90
34492;DHT22;20737;49.908;8.126;2022-07-23T03:20:28;20.30;99.90
34492;DHT22;20737;49.908;8.126;2022-07-23T03:22:56;20.20;99.90
34492;DHT22;20737;49.908;8.126;2022-07-23T03:25:23;20.20;99.90
34492;DHT22;20737;49.908;8.126;2022-07-23T03:27:50;20.10;99.90
34492;DHT22;20737;49.908;8.126;2022-07-23T03:30:17;20.20;99.90
34492;DHT22;20737;49.908;8.126;2022-07-23T03:32:44;20.10;99.90
34492;DHT22;20737;49.908;8.126;2022-07-23T03:35:11;20.10;99.90
34492;DHT22;20737;49.908;8.126;2022-07-23T03:37:37;20.00;99.90
34492;DHT22;20737;49.908;8.126;2022-07-23T03:40:07;20.10;99.90
34492;DHT22;20737;49.908;8.126;2022-07-23T03:42:34;20.10;99.90
34492;DHT22;20737;49.908;8.126;2022-07-23T03:45:03;20.10;99.90
34492;DHT22;20737;49.908;8.126;2022-07-23T03:47:30;20.20;99.90
34492;DHT22;20737;49.908;8.126;2022-07-23T03:49:57;20.20;99.90
34492;DHT22;20737;49.908;8.126;2022-07-23T03:52:24;20.10;99.90
34492;DHT22;20737;49.908;8.126;2022-07-23T03:54:53;20.20;99.90
34492;DHT22;20737;49.908;8.126;2022-07-23T03:57:21;20.10;99.90
34492;DHT22;20737;49.908;8.126;2022-07-23T03:59:48;20.00;99.90
34492;DHT22;20737;49.908;8.126;2022-07-23T04:02:15;19.90;99.90
34492;DHT22;20737;49.908;8.126;2022-07-23T04:04:42;19.90;99.90
34492;DHT22;20737;49.908;8.126;2022-07-23T04:07:08;19.90;99.90
34492;DHT22;20737;49.908;8.126;2022-07-23T04:09:35;19.90;99.90
34492;DHT22;20737;49.908;8.126;2022-07-23T04:12:02;20.00;99.90
34492;DHT22;20737;49.908;8.126;2022-07-23T04:14:30;20.10;99.90
34492;DHT22;20737;49.908;8.126;2022-07-23T04:16:57;20.20;99.90
34492;DHT22;20737;49.908;8.126;2022-07-23T04:19:24;20.10;99.90
34492;DHT22;20737;49.908;8.126;2022-07-23T04:21:51;20.20;99.90
34492;DHT22;20737;49.908;8.126;2022-07-23T04:24:18;20.20;99.90
34492;DHT22;20737;49.908;8.126;2022-07-23T04:26:45;20.20;99.90
34492;DHT22;20737;49.908;8.126;2022-07-23T04:29:11;20.20;99.90
34492;DHT22;20737;49.908;8.126;2022-07-23T04:31:39;20.20;99.90
34492;DHT22;20737;49.908;8.126;2022-07-23T04:34:06;20.20;99.90
34492;DHT22;20737;49.908;8.126;2022-07-23T04:36:33;20.20;99.90
34492;DHT22;20737;49.908;8.126;2022-07-23T04:39:00;20.30;99.90
34492;DHT22;20737;49.908;8.126;2022-07-23T04:41:27;20.30;99.90
34492;DHT22;20737;49.908;8.126;2022-07-23T04:43:53;20.30;99.90
34492;DHT22;20737;49.908;8.126;2022-07-23T04:46:20;20.30;99.90
34492;DHT22;20737;49.908;8.126;2022-07-23T04:48:48;20.30;99.90
34492;DHT22;20737;49.908;8.126;2022-07-23T04:51:15;20.30;99.90
34492;DHT22;20737;49.908;8.126;2022-07-23T04:53:42;20.30;99.90
34492;DHT22;20737;49.908;8.126;2022-07-23T04:56:09;20.30;99.90
34492;DHT22;20737;49.908;8.126;2022-07-23T04:58:35;20.30;99.90
34492;DHT22;20737;49.908;8.126;2022-07-23T05:01:02;20.20;99.90
34492;DHT22;20737;49.908;8.126;2022-07-23T05:03:29;20.20;99.90
34492;DHT22;20737;49.908;8.126;2022-07-23T05:05:59;20.10;99.90
34492;DHT22;20737;49.908;8.126;2022-07-23T05:08:26;20.20;99.90
34492;DHT22;20737;49.908;8.126;2022-07-23T05:10:53;20.20;99.90
34492;DHT22;20737;49.908;8.126;2022-07-23T05:13:20;20.30;99.90
34492;DHT22;20737;49.908;8.126;2022-07-23T05:15:46;20.20;99.90
34492;DHT22;20737;49.908;8.126;2022-07-23T05:18:13;20.20;99.90
34492;DHT22;20737;49.908;8.126;2022-07-23T05:20:40;20.20;99.90
34492;DHT22;20737;49.908;8.126;2022-07-23T05:23:08;20.10;99.90
34492;DHT22;20737;49.908;8.126;2022-07-23T05:25:35;20.20;99.90
34492;DHT22;20737;49.908;8.126;2022-07-23T05:28:02;20.30;99.90
34492;DHT22;20737;49.908;8.126;2022-07-23T05:30:29;20.30;99.90
34492;DHT22;20737;49.908;8.126;2022-07-23T05:32:56;20.40;99.90
34492;DHT22;20737;49.908;8.126;2022-07-23T05:35:23;20.50;99.90
34492;DHT22;20737;49.908;8.126;2022-07-23T05:37:50;20.70;99.90
34492;DHT22;20737;49.908;8.126;2022-07-23T05:40:19;20.80;99.90
34492;DHT22;20737;49.908;8.126;2022-07-23T05:42:46;21.10;99.90
34492;DHT22;20737;49.908;8.126;2022-07-23T05:45:13;21.30;99.90
34492;DHT22;20737;49.908;8.126;2022-07-23T05:47:41;21.60;99.90
34492;DHT22;20737;49.908;8.126;2022-07-23T05:50:09;21.70;99.90
34492;DHT22;20737;49.908;8.126;2022-07-23T05:52:36;21.80;99.90
34492;DHT22;20737;49.908;8.126;2022-07-23T05:55:05;21.70;99.90
34492;DHT22;20737;49.908;8.126;2022-07-23T05:57:33;21.90;99.90
34492;DHT22;20737;49.908;8.126;2022-07-23T06:00:00;22.00;99.90
34492;DHT22;20737;49.908;8.126;2022-07-23T06:02:27;22.10;99.90
34492;DHT22;20737;49.908;8.126;2022-07-23T06:04:53;22.20;99.90
34492;DHT22;20737;49.908;8.126;2022-07-23T06:07:20;22.30;99.90
34492;DHT22;20737;49.908;8.126;2022-07-23T06:09:47;22.40;99.90
34492;DHT22;20737;49.908;8.126;2022-07-23T06:12:14;22.60;99.90
34492;DHT22;20737;49.908;8.126;2022-07-23T06:14:43;22.80;99.90
34492;DHT22;20737;49.908;8.126;2022-07-23T06:17:12;22.70;99.90
34492;DHT22;20737;49.908;8.126;2022-07-23T06:19:38;22.90;99.90
34492;DHT22;20737;49.908;8.126;2022-07-23T06:22:05;22.90;99.90
34492;DHT22;20737;49.908;8.126;2022-07-23T06:24:32;23.10;99.90
34492;DHT22;20737;49.908;8.126;2022-07-23T06:26:59;23.40;99.90
34492;DHT22;20737;49.908;8.126;2022-07-23T06:29:26;23.60;99.90
34492;DHT22;20737;49.908;8.126;2022-07-23T06:31:54;23.90;99.90
34492;DHT22;20737;49.908;8.126;2022-07-23T06:34:21;24.30;99.90
34492;DHT22;20737;49.908;8.126;2022-07-23T06:36:48;24.50;99.90
34492;DHT22;20737;49.908;8.126;2022-07-23T06:39:14;25.10;99.90
34492;DHT22;20737;49.908;8.126;2022-07-23T06:41:41;25.70;99.90
34492;DHT22;20737;49.908;8.126;2022-07-23T06:44:08;26.10;99.90
34492;DHT22;20737;49.908;8.126;2022-07-23T06:46:35;26.40;99.90
34492;DHT22;20737;49.908;8.126;2022-07-23T06:49:03;26.90;99.90
34492;DHT22;20737;49.908;8.126;2022-07-23T06:51:30;27.50;99.90
34492;DHT22;20737;49.908;8.126;2022-07-23T06:53:57;27.70;99.90
34492;DHT22;20737;49.908;8.126;2022-07-23T06:56:26;28.30;99.90
34492;DHT22;20737;49.908;8.126;2022-07-23T06:58:53;28.40;99.90
34492;DHT22;20737;49.908;8.126;2022-07-23T07:01:20;28.30;99.90
34492;DHT22;20737;49.908;8.126;2022-07-23T07:03:47;27.70;99.90
34492;DHT22;20737;49.908;8.126;2022-07-23T07:06:15;26.90;99.90
34492;DHT22;20737;49.908;8.126;2022-07-23T07:08:42;27.70;99.90
34492;DHT22;20737;49.908;8.126;2022-07-23T07:11:09;28.30;99.90
34492;DHT22;20737;49.908;8.126;2022-07-23T07:13:36;28.70;99.90
34492;DHT22;20737;49.908;8.126;2022-07-23T07:16:03;28.80;99.90
34492;DHT22;20737;49.908;8.126;2022-07-23T07:18:30;29.10;99.40
34492;DHT22;20737;49.908;8.126;2022-07-23T07:20:57;29.70;98.20
34492;DHT22;20737;49.908;8.126;2022-07-23T07:23:25;29.60;98.90
34492;DHT22;20737;49.908;8.126;2022-07-23T07:25:52;29.80;97.40
34492;DHT22;20737;49.908;8.126;2022-07-23T07:28:19;29.90;96.10
34492;DHT22;20737;49.908;8.126;2022-07-23T07:30:46;30.00;94.80
34492;DHT22;20737;49.908;8.126;2022-07-23T07:33:12;29.90;94.60
34492;DHT22;20737;49.908;8.126;2022-07-23T07:35:39;30.10;94.70
34492;DHT22;20737;49.908;8.126;2022-07-23T07:38:06;30.70;93.20
34492;DHT22;20737;49.908;8.126;2022-07-23T07:40:34;30.90;92.70
34492;DHT22;20737;49.908;8.126;2022-07-23T07:43:01;31.00;91.80
34492;DHT22;20737;49.908;8.126;2022-07-23T07:45:29;30.90;91.20
34492;DHT22;20737;49.908;8.126;2022-07-23T07:47:56;31.20;90.60
34492;DHT22;20737;49.908;8.126;2022-07-23T07:50:23;31.50;89.50
34492;DHT22;20737;49.908;8.126;2022-07-23T07:52:50;32.10;86.50
34492;DHT22;20737;49.908;8.126;2022-07-23T07:55:17;32.20;85.30
34492;DHT22;20737;49.908;8.126;2022-07-23T07:57:45;32.40;84.80
34492;DHT22;20737;49.908;8.126;2022-07-23T08:00:12;31.90;83.40
34492;DHT22;20737;49.908;8.126;2022-07-23T08:02:43;31.40;83.90
34492;DHT22;20737;49.908;8.126;2022-07-23T08:05:11;30.60;86.60
34492;DHT22;20737;49.908;8.126;2022-07-23T08:07:38;29.40;89.20
34492;DHT22;20737;49.908;8.126;2022-07-23T08:10:08;28.50;93.00
34492;DHT22;20737;49.908;8.126;2022-07-23T08:12:40;28.40;94.40
34492;DHT22;20737;49.908;8.126;2022-07-23T08:15:09;28.80;92.80
34492;DHT22;20737;49.908;8.126;2022-07-23T08:17:36;29.00;93.90
34492;DHT22;20737;49.908;8.126;2022-07-23T08:20:04;30.00;92.00
34492;DHT22;20737;49.908;8.126;2022-07-23T08:22:52;30.80;88.50
34492;DHT22;20737;49.908;8.126;2022-07-23T08:25:21;30.60;86.60
34492;DHT22;20737;49.908;8.126;2022-07-23T08:27:49;31.10;86.40
34492;DHT22;20737;49.908;8.126;2022-07-23T08:30:18;31.00;86.00
34492;DHT22;20737;49.908;8.126;2022-07-23T08:32:52;30.80;87.00
34492;DHT22;20737;49.908;8.126;2022-07-23T08:35:22;30.10;86.20
34492;DHT22;20737;49.908;8.126;2022-07-23T08:37:50;29.60;88.30
34492;DHT22;20737;49.908;8.126;2022-07-23T08:40:17;29.20;87.80
34492;DHT22;20737;49.908;8.126;2022-07-23T08:42:47;29.00;90.60
34492;DHT22;20737;49.908;8.126;2022-07-23T08:45:17;29.10;90.80
34492;DHT22;20737;49.908;8.126;2022-07-23T08:47:49;30.30;88.00
34492;DHT22;20737;49.908;8.126;2022-07-23T08:50:16;30.80;78.70
34492;DHT22;20737;49.908;8.126;2022-07-23T08:52:42;30.70;77.70
34492;DHT22;20737;49.908;8.126;2022-07-23T08:55:09;31.30;76.80
34492;DHT22;20737;49.908;8.126;2022-07-23T08:57:36;32.10;73.20
34492;DHT22;20737;49.908;8.126;2022-07-23T09:00:05;32.60;66.90
34492;DHT22;20737;49.908;8.126;2022-07-23T09:02:38;33.00;67.60
34492;DHT22;20737;49.908;8.126;2022-07-23T09:05:06;33.30;65.40
34492;DHT22;20737;49.908;8.126;2022-07-23T09:07:33;33.60;63.50
34492;DHT22;20737;49.908;8.126;2022-07-23T09:10:08;34.40;64.50
34492;DHT22;20737;49.908;8.126;2022-07-23T09:12:35;34.60;61.10
34492;DHT22;20737;49.908;8.126;2022-07-23T09:15:07;34.40;60.00
34492;DHT22;20737;49.908;8.126;2022-07-23T09:17:40;33.90;62.20
34492;DHT22;20737;49.908;8.126;2022-07-23T09:20:09;34.00;59.50
34492;DHT22;20737;49.908;8.126;2022-07-23T09:22:37;33.10;60.10
34492;DHT22;20737;49.908;8.126;2022-07-23T09:25:09;33.00;63.20
34492;DHT22;20737;49.908;8.126;2022-07-23T09:27:54;34.30;59.50
34492;DHT22;20737;49.908;8.126;2022-07-23T09:30:23;35.50;59.10
34492;DHT22;20737;49.908;8.126;2022-07-23T09:33:09;35.80;57.10
34492;DHT22;20737;49.908;8.126;2022-07-23T09:35:48;36.50;55.00
34492;DHT22;20737;49.908;8.126;2022-07-23T09:38:15;36.50;55.90
34492;DHT22;20737;49.908;8.126;2022-07-23T09:40:43;36.20;52.60
34492;DHT22;20737;49.908;8.126;2022-07-23T09:43:26;34.60;53.90
34492;DHT22;20737;49.908;8.126;2022-07-23T09:45:53;34.20;57.00
34492;DHT22;20737;49.908;8.126;2022-07-23T09:48:30;34.10;56.10
34492;DHT22;20737;49.908;8.126;2022-07-23T09:51:02;35.00;55.20
34492;DHT22;20737;49.908;8.126;2022-07-23T09:53:30;36.20;53.20
34492;DHT22;20737;49.908;8.126;2022-07-23T09:55:58;35.70;53.40
34492;DHT22;20737;49.908;8.126;2022-07-23T09:58:27;35.50;53.20
34492;DHT22;20737;49.908;8.126;2022-07-23T10:00:56;36.00;52.30
34492;DHT22;20737;49.908;8.126;2022-07-23T10:03:24;36.20;51.00
34492;DHT22;20737;49.908;8.126;2022-07-23T10:05:53;35.50;50.60
34492;DHT22;20737;49.908;8.126;2022-07-23T10:08:20;35.10;52.00
34492;DHT22;20737;49.908;8.126;2022-07-23T10:10:49;35.90;52.40
34492;DHT22;20737;49.908;8.126;2022-07-23T10:13:17;36.10;52.10
34492;DHT22;20737;49.908;8.126;2022-07-23T10:16:01;37.20;50.30
34492;DHT22;20737;49.908;8.126;2022-07-23T10:18:30;37.80;48.70
34492;DHT22;20737;49.908;8.126;2022-07-23T10:20:59;37.00;47.90
34492;DHT22;20737;49.908;8.126;2022-07-23T10:23:32;36.70;49.30
34492;DHT22;20737;49.908;8.126;2022-07-23T10:26:19;36.00;51.70
34492;DHT22;20737;49.908;8.126;2022-07-23T10:29:09;36.20;51.20
34492;DHT22;20737;49.908;8.126;2022-07-23T10:31:46;37.20;50.70
34492;DHT22;20737;49.908;8.126;2022-07-23T10:34:21;37.60;48.50
34492;DHT22;20737;49.908;8.126;2022-07-23T10:36:56;37.30;48.30
34492;DHT22;20737;49.908;8.126;2022-07-23T10:39:26;37.40;48.80
34492;DHT22;20737;49.908;8.126;2022-07-23T10:42:08;37.70;48.10
34492;DHT22;20737;49.908;8.126;2022-07-23T10:44:38;37.40;47.20
34492;DHT22;20737;49.908;8.126;2022-07-23T10:47:06;36.10;50.50
34492;DHT22;20737;49.908;8.126;2022-07-23T10:49:42;34.70;52.50
34492;DHT22;20737;49.908;8.126;2022-07-23T10:52:18;33.40;55.10
34492;DHT22;20737;49.908;8.126;2022-07-23T10:54:47;32.30;57.30
34492;DHT22;20737;49.908;8.126;2022-07-23T10:57:16;31.50;58.10
34492;DHT22;20737;49.908;8.126;2022-07-23T11:00:12;30.90;59.60
34492;DHT22;20737;49.908;8.126;2022-07-23T11:02:40;30.80;61.30
34492;DHT22;20737;49.908;8.126;2022-07-23T11:05:10;30.70;62.30
34492;DHT22;20737;49.908;8.126;2022-07-23T11:08:14;31.60;63.80
34492;DHT22;20737;49.908;8.126;2022-07-23T11:10:45;33.30;57.30
34492;DHT22;20737;49.908;8.126;2022-07-23T11:13:39;34.00;55.20
34492;DHT22;20737;49.908;8.126;2022-07-23T11:16:24;34.30;53.70
34492;DHT22;20737;49.908;8.126;2022-07-23T11:19:07;33.60;56.60
34492;DHT22;20737;49.908;8.126;2022-07-23T11:21:43;34.50;54.40
34492;DHT22;20737;49.908;8.126;2022-07-23T11:24:14;35.00;51.90
34492;DHT22;20737;49.908;8.126;2022-07-23T11:26:53;35.60;52.90
34492;DHT22;20737;49.908;8.126;2022-07-23T11:29:45;34.80;50.80
34492;DHT22;20737;49.908;8.126;2022-07-23T11:32:36;35.50;51.30
34492;DHT22;20737;49.908;8.126;2022-07-23T11:35:21;35.60;51.00
34492;DHT22;20737;49.908;8.126;2022-07-23T11:37:49;36.10;50.50
34492;DHT22;20737;49.908;8.126;2022-07-23T11:40:20;35.50;50.10
34492;DHT22;20737;49.908;8.126;2022-07-23T11:42:56;34.80;51.10
34492;DHT22;20737;49.908;8.126;2022-07-23T11:45:24;34.60;51.80
34492;DHT22;20737;49.908;8.126;2022-07-23T11:47:51;34.30;51.60
34492;DHT22;20737;49.908;8.126;2022-07-23T11:50:18;34.00;51.70
34492;DHT22;20737;49.908;8.126;2022-07-23T11:52:45;33.40;53.10
34492;DHT22;20737;49.908;8.126;2022-07-23T11:55:12;32.80;55.10
34492;DHT22;20737;49.908;8.126;2022-07-23T11:57:43;32.40;55.90
34492;DHT22;20737;49.908;8.126;2022-07-23T12:00:12;31.80;55.20
34492;DHT22;20737;49.908;8.126;2022-07-23T12:02:41;31.30;55.90
34492;DHT22;20737;49.908;8.126;2022-07-23T12:05:12;31.00;57.20
34492;DHT22;20737;49.908;8.126;2022-07-23T12:07:40;30.70;57.50
34492;DHT22;20737;49.908;8.126;2022-07-23T12:10:14;30.70;58.30
34492;DHT22;20737;49.908;8.126;2022-07-23T12:12:44;31.30;57.60
34492;DHT22;20737;49.908;8.126;2022-07-23T12:15:12;31.70;54.60
34492;DHT22;20737;49.908;8.126;2022-07-23T12:17:42;31.80;54.30
34492;DHT22;20737;49.908;8.126;2022-07-23T12:20:13;32.30;54.40
34492;DHT22;20737;49.908;8.126;2022-07-23T12:22:43;32.60;53.30
34492;DHT22;20737;49.908;8.126;2022-07-23T12:25:11;32.30;53.80
34492;DHT22;20737;49.908;8.126;2022-07-23T12:27:39;32.20;55.90
34492;DHT22;20737;49.908;8.126;2022-07-23T12:30:22;32.00;55.60
34492;DHT22;20737;49.908;8.126;2022-07-23T12:32:50;32.20;55.70
34492;DHT22;20737;49.908;8.126;2022-07-23T12:35:17;32.60;54.70
34492;DHT22;20737;49.908;8.126;2022-07-23T12:37:46;33.00;53.40
34492;DHT22;20737;49.908;8.126;2022-07-23T12:40:23;33.50;51.70
34492;DHT22;20737;49.908;8.126;2022-07-23T12:42:51;33.20;50.90
34492;DHT22;20737;49.908;8.126;2022-07-23T12:45:20;33.30;52.40
34492;DHT22;20737;49.908;8.126;2022-07-23T12:47:55;32.90;52.00
34492;DHT22;20737;49.908;8.126;2022-07-23T12:50:48;32.40;54.30
34492;DHT22;20737;49.908;8.126;2022-07-23T12:53:17;32.00;53.60
34492;DHT22;20737;49.908;8.126;2022-07-23T12:55:45;31.90;54.30
34492;DHT22;20737;49.908;8.126;2022-07-23T12:58:15;31.70;54.80
34492;DHT22;20737;49.908;8.126;2022-07-23T13:01:04;31.60;54.70
34492;DHT22;20737;49.908;8.126;2022-07-23T13:03:34;31.90;53.30
34492;DHT22;20737;49.908;8.126;2022-07-23T13:06:04;32.00;52.60
34492;DHT22;20737;49.908;8.126;2022-07-23T13:08:33;32.20;53.20
34492;DHT22;20737;49.908;8.126;2022-07-23T13:11:00;32.20;53.80
34492;DHT22;20737;49.908;8.126;2022-07-23T13:13:29;32.20;53.50
34492;DHT22;20737;49.908;8.126;2022-07-23T13:15:57;32.30;54.60
34492;DHT22;20737;49.908;8.126;2022-07-23T13:18:26;32.80;53.00
34492;DHT22;20737;49.908;8.126;2022-07-23T13:20:53;32.20;50.70
34492;DHT22;20737;49.908;8.126;2022-07-23T13:23:21;31.60;52.20
34492;DHT22;20737;49.908;8.126;2022-07-23T13:25:48;31.50;52.60
34492;DHT22;20737;49.908;8.126;2022-07-23T13:28:16;31.20;53.00
34492;DHT22;20737;49.908;8.126;2022-07-23T13:30:44;31.20;53.20
34492;DHT22;20737;49.908;8.126;2022-07-23T13:33:11;31.30;53.30
34492;DHT22;20737;49.908;8.126;2022-07-23T13:35:39;31.50;52.90
34492;DHT22;20737;49.908;8.126;2022-07-23T13:38:06;31.40;52.60
34492;DHT22;20737;49.908;8.126;2022-07-23T13:40:34;31.20;53.60
34492;DHT22;20737;49.908;8.126;2022-07-23T13:43:01;31.10;53.40
34492;DHT22;20737;49.908;8.126;2022-07-23T13:45:28;31.70;54.90
34492;DHT22;20737;49.908;8.126;2022-07-23T13:47:55;32.10;52.30
34492;DHT22;20737;49.908;8.126;2022-07-23T13:50:22;32.10;52.30
34492;DHT22;20737;49.908;8.126;2022-07-23T13:52:50;32.00;52.30
34492;DHT22;20737;49.908;8.126;2022-07-23T13:55:19;31.80;54.00
34492;DHT22;20737;49.908;8.126;2022-07-23T13:57:46;31.40;52.60
34492;DHT22;20737;49.908;8.126;2022-07-23T14:00:13;31.00;54.10
34492;DHT22;20737;49.908;8.126;2022-07-23T14:02:40;31.30;53.80
34492;DHT22;20737;49.908;8.126;2022-07-23T14:05:09;31.20;54.60
34492;DHT22;20737;49.908;8.126;2022-07-23T14:07:36;31.20;54.70
34492;DHT22;20737;49.908;8.126;2022-07-23T14:10:06;31.30;54.10
34492;DHT22;20737;49.908;8.126;2022-07-23T14:12:33;31.40;55.40
34492;DHT22;20737;49.908;8.126;2022-07-23T14:15:00;31.10;54.60
34492;DHT22;20737;49.908;8.126;2022-07-23T14:17:26;31.30;55.10
34492;DHT22;20737;49.908;8.126;2022-07-23T14:19:53;31.50;54.50
34492;DHT22;20737;49.908;8.126;2022-07-23T14:22:20;32.10;54.40
34492;DHT22;20737;49.908;8.126;2022-07-23T14:24:47;32.60;54.10
34492;DHT22;20737;49.908;8.126;2022-07-23T14:27:16;32.80;51.90
34492;DHT22;20737;49.908;8.126;2022-07-23T14:29:43;32.90;52.00
34492;DHT22;20737;49.908;8.126;2022-07-23T14:32:10;32.80;50.30
34492;DHT22;20737;49.908;8.126;2022-07-23T14:34:37;33.00;50.70
34492;DHT22;20737;49.908;8.126;2022-07-23T14:37:04;33.30;51.60
34492;DHT22;20737;49.908;8.126;2022-07-23T14:39:30;33.10;49.10
34492;DHT22;20737;49.908;8.126;2022-07-23T14:41:57;32.90;49.60
34492;DHT22;20737;49.908;8.126;2022-07-23T14:44:25;32.70;49.10
34492;DHT22;20737;49.908;8.126;2022-07-23T14:46:53;32.50;48.40
34492;DHT22;20737;49.908;8.126;2022-07-23T14:49:20;32.00;49.10
34492;DHT22;20737;49.908;8.126;2022-07-23T14:51:47;32.20;50.20
34492;DHT22;20737;49.908;8.126;2022-07-23T14:54:14;31.70;50.70
34492;DHT22;20737;49.908;8.126;2022-07-23T14:56:42;31.70;50.90
34492;DHT22;20737;49.908;8.126;2022-07-23T14:59:09;31.70;50.50
34492;DHT22;20737;49.908;8.126;2022-07-23T15:01:37;31.90;52.50
34492;DHT22;20737;49.908;8.126;2022-07-23T15:04:05;32.30;51.30
34492;DHT22;20737;49.908;8.126;2022-07-23T15:06:32;32.40;51.40
34492;DHT22;20737;49.908;8.126;2022-07-23T15:08:59;32.30;50.60
34492;DHT22;20737;49.908;8.126;2022-07-23T15:11:26;31.90;50.20
34492;DHT22;20737;49.908;8.126;2022-07-23T15:13:54;31.90;50.50
34492;DHT22;20737;49.908;8.126;2022-07-23T15:16:21;31.80;50.20
34492;DHT22;20737;49.908;8.126;2022-07-23T15:18:49;31.80;51.50
34492;DHT22;20737;49.908;8.126;2022-07-23T15:21:16;31.60;51.40
34492;DHT22;20737;49.908;8.126;2022-07-23T15:23:43;31.90;51.20
34492;DHT22;20737;49.908;8.126;2022-07-23T15:26:10;31.90;50.20
34492;DHT22;20737;49.908;8.126;2022-07-23T15:28:37;31.80;50.90
34492;DHT22;20737;49.908;8.126;2022-07-23T15:31:03;31.90;51.00
34492;DHT22;20737;49.908;8.126;2022-07-23T15:33:30;31.70;49.60
34492;DHT22;20737;49.908;8.126;2022-07-23T15:35:59;31.50;49.80
34492;DHT22;20737;49.908;8.126;2022-07-23T15:38:26;31.30;50.20
34492;DHT22;20737;49.908;8.126;2022-07-23T15:40:53;31.20;51.10